Time,TemperatureF,DewpointF,PressureIn,WindDirection,WindDirectionDegrees,WindSpeedMPH,WindSpeedGustMPH,Humidity,HourlyPrecipIn,Conditions,Clouds,dailyrainin,SoftwareType,DateUTC
2013-01-08 00:00:00,1.6,-12.4,29.82,North,0,0.0,0.0,51,0.00,,---,0.00,VWS V14.01,2013-01-08 05:00:00,
2013-01-08 00:03:00,1.8,-12.2,29.82,North,0,0.0,0.0,51,0.00,,---,0.00,VWS V14.01,2013-01-08 05:03:00,
2013-01-08 00:08:00,1.6,-12.4,29.82,North,0,0.0,0.0,51,0.00,,---,0.00,VWS V14.01,2013-01-08 05:08:00,
2013-01-08 00:09:00,1.6,-12.4,29.82,North,0,0.0,0.0,51,0.00,,---,0.00,VWS V14.01,2013-01-08 05:09:00,
2013-01-08 00:14:00,1.4,-12.5,29.82,North,0,0.0,0.0,51,0.00,,---,0.00,VWS V14.01,2013-01-08 05:14:00,
2013-01-08 00:19:00,1.2,-12.7,29.82,North,0,0.0,0.0,51,0.00,,---,0.00,VWS V14.01,2013-01-08 05:19:00,
2013-01-08 00:24:00,1.2,-12.7,29.82,North,0,0.0,0.0,51,0.00,,---,0.00,VWS V14.01,2013-01-08 05:24:00,
2013-01-08 00:29:00,1.4,-12.5,29.82,North,0,0.0,0.0,51,0.00,,---,0.00,VWS V14.01,2013-01-08 05:29:00,
2013-01-08 00:35:00,1.2,-12.7,29.82,North,0,0.0,0.0,51,0.00,,---,0.00,VWS V14.01,2013-01-08 05:35:00,
2013-01-08 00:41:00,0.7,-13.2,29.82,North,0,0.0,0.0,51,0.00,,---,0.00,VWS V14.01,2013-01-08 05:41:00,
2013-01-08 00:46:00,0.5,-13.4,29.82,North,0,0.0,0.0,51,0.00,,---,0.00,VWS V14.01,2013-01-08 05:46:00,
2013-01-08 00:51:00,0.3,-13.5,29.82,North,0,0.0,0.0,51,0.00,,---,0.00,VWS V14.01,2013-01-08 05:51:00,
2013-01-08 00:57:00,0.3,-13.5,29.82,North,0,0.0,0.0,51,0.00,,---,0.00,VWS V14.01,2013-01-08 05:57:00,
2013-01-08 01:02:00,0.1,-13.7,29.82,North,0,0.0,0.0,51,0.00,,---,0.00,VWS V14.01,2013-01-08 06:02:00,
2013-01-08 01:07:00,0.1,-13.7,29.82,North,0,0.0,0.0,51,0.00,,---,0.00,VWS V14.01,2013-01-08 06:07:00,
2013-01-08 01:12:00,0.0,-13.9,29.82,North,0,0.0,0.0,51,0.00,,---,0.00,VWS V14.01,2013-01-08 06:12:00,
2013-01-08 01:17:00,0.0,-13.9,29.82,North,0,0.0,0.0,51,0.00,,---,0.00,VWS V14.01,2013-01-08 06:17:00,
2013-01-08 01:22:00,0.0,-13.9,29.82,North,0,0.0,0.0,51,0.00,,---,0.00,VWS V14.01,2013-01-08 06:22:00,
2013-01-08 01:27:00,0.0,-13.9,29.82,North,0,0.0,0.0,51,0.00,,---,0.00,VWS V14.01,2013-01-08 06:27:00,
2013-01-08 01:32:00,0.0,-13.9,29.82,North,0,0.0,0.0,51,0.00,,---,0.00,VWS V14.01,2013-01-08 06:32:00,
2013-01-08 01:37:00,-0.2,-14.0,29.82,North,0,0.0,0.0,51,0.00,,---,0.00,VWS V14.01,2013-01-08 06:37:00,
2013-01-08 01:42:00,-0.2,-14.0,29.82,North,0,0.0,0.0,51,0.00,,---,0.00,VWS V14.01,2013-01-08 06:42:00,
2013-01-08 01:47:00,-0.6,-14.4,29.82,North,0,0.0,0.0,51,0.00,,---,0.00,VWS V14.01,2013-01-08 06:47:00,
2013-01-08 01:52:00,-0.6,-14.4,29.82,North,0,0.0,0.0,51,0.00,,---,0.00,VWS V14.01,2013-01-08 06:52:00,
2013-01-08 01:57:00,-0.6,-14.4,29.79,North,0,0.0,0.0,51,0.00,,---,0.00,VWS V14.01,2013-01-08 06:57:00,
2013-01-08 02:03:00,-0.6,-14.4,29.79,North,0,0.0,0.0,51,0.00,,---,0.00,VWS V14.01,2013-01-08 07:03:00,
2013-01-08 02:09:00,-0.4,-14.2,29.79,North,0,0.0,0.0,51,0.00,,---,0.00,VWS V14.01,2013-01-08 07:09:00,
2013-01-08 02:14:00,-0.6,-14.4,29.79,North,0,0.0,0.0,51,0.00,,---,0.00,VWS V14.01,2013-01-08 07:14:00,
2013-01-08 02:19:00,-0.6,-14.4,29.79,North,0,0.0,0.0,51,0.00,,---,0.00,VWS V14.01,2013-01-08 07:19:00,
2013-01-08 02:24:00,-0.9,-14.7,29.79,North,0,0.0,0.0,51,0.00,,---,0.00,VWS V14.01,2013-01-08 07:24:00,
2013-01-08 02:29:00,-1.1,-14.9,29.79,North,0,0.0,0.0,51,0.00,,---,0.00,VWS V14.01,2013-01-08 07:29:00,
2013-01-08 02:34:00,-0.9,-14.7,29.79,North,0,0.0,0.0,51,0.00,,---,0.00,VWS V14.01,2013-01-08 07:34:00,
2013-01-08 02:39:00,-0.9,-14.7,29.79,North,0,0.0,0.0,51,0.00,,---,0.00,VWS V14.01,2013-01-08 07:39:00,
2013-01-08 02:44:00,-1.1,-14.9,29.79,North,0,0.0,0.0,51,0.00,,---,0.00,VWS V14.01,2013-01-08 07:44:00,
2013-01-08 02:49:00,-1.3,-15.0,29.79,North,0,0.0,0.0,51,0.00,,---,0.00,VWS V14.01,2013-01-08 07:49:00,
2013-01-08 02:54:00,-1.3,-15.0,29.79,North,0,0.0,0.0,51,0.00,,---,0.00,VWS V14.01,2013-01-08 07:54:00,
2013-01-08 02:59:00,-1.3,-15.0,29.79,North,0,0.0,0.0,51,0.00,,---,0.00,VWS V14.01,2013-01-08 07:59:00,
2013-01-08 03:05:00,-1.3,-15.0,29.79,North,0,0.0,0.0,51,0.00,,---,0.00,VWS V14.01,2013-01-08 08:05:00,
2013-01-08 03:10:00,-1.1,-14.9,29.79,North,0,0.0,0.0,51,0.00,,---,0.00,VWS V14.01,2013-01-08 08:10:00,
2013-01-08 03:15:00,-1.3,-15.0,29.79,North,0,0.0,0.0,51,0.00,,---,0.00,VWS V14.01,2013-01-08 08:15:00,
2013-01-08 03:20:00,-1.3,-15.0,29.79,North,0,0.0,0.0,51,0.00,,---,0.00,VWS V14.01,2013-01-08 08:20:00,
2013-01-08 03:25:00,-1.5,-15.2,29.79,North,0,0.0,0.0,51,0.00,,---,0.00,VWS V14.01,2013-01-08 08:25:00,
2013-01-08 03:30:00,-1.5,-15.2,29.79,North,0,0.0,0.0,51,0.00,,---,0.00,VWS V14.01,2013-01-08 08:30:00,
2013-01-08 03:36:00,-1.8,-15.5,29.79,North,0,0.0,0.0,51,0.00,,---,0.00,VWS V14.01,2013-01-08 08:36:00,
2013-01-08 03:41:00,-2.0,-15.7,29.76,North,0,0.0,0.0,51,0.00,,---,0.00,VWS V14.01,2013-01-08 08:41:00,
2013-01-08 03:46:00,-2.2,-15.9,29.76,North,0,0.0,0.0,51,0.00,,---,0.00,VWS V14.01,2013-01-08 08:46:00,
2013-01-08 03:51:00,-2.0,-15.7,29.76,North,0,0.0,0.0,51,0.00,,---,0.00,VWS V14.01,2013-01-08 08:51:00,
2013-01-08 03:56:00,-1.7,-15.4,29.76,North,0,0.0,0.0,51,0.00,,---,0.00,VWS V14.01,2013-01-08 08:56:00,
2013-01-08 04:01:00,-1.7,-15.4,29.76,North,0,0.0,0.0,51,0.00,,---,0.00,VWS V14.01,2013-01-08 09:01:00,
2013-01-08 04:06:00,-1.8,-15.5,29.76,North,0,0.0,0.0,51,0.00,,---,0.00,VWS V14.01,2013-01-08 09:06:00,
2013-01-08 04:11:00,-2.0,-15.7,29.76,North,0,0.0,0.0,51,0.00,,---,0.00,VWS V14.01,2013-01-08 09:11:00,
2013-01-08 04:16:00,-1.8,-15.5,29.76,North,0,0.0,0.0,51,0.00,,---,0.00,VWS V14.01,2013-01-08 09:16:00,
2013-01-08 04:21:00,-2.0,-15.7,29.76,North,0,0.0,0.0,51,0.00,,---,0.00,VWS V14.01,2013-01-08 09:21:00,
2013-01-08 04:27:00,-2.2,-15.9,29.76,North,0,0.0,0.0,51,0.00,,---,0.00,VWS V14.01,2013-01-08 09:27:00,
2013-01-08 04:32:00,-2.2,-15.9,29.76,North,0,0.0,0.0,51,0.00,,---,0.00,VWS V14.01,2013-01-08 09:32:00,
2013-01-08 04:37:00,-2.6,-16.2,29.76,North,0,0.0,0.0,51,0.00,,---,0.00,VWS V14.01,2013-01-08 09:37:00,
2013-01-08 04:42:00,-2.6,-16.2,29.74,North,0,0.0,0.0,51,0.00,,---,0.00,VWS V14.01,2013-01-08 09:42:00,
2013-01-08 04:48:00,-2.4,-16.0,29.74,North,0,0.0,0.0,51,0.00,,---,0.00,VWS V14.01,2013-01-08 09:48:00,
2013-01-08 04:53:00,-2.2,-15.9,29.74,North,0,0.0,0.0,51,0.00,,---,0.00,VWS V14.01,2013-01-08 09:53:00,
2013-01-08 04:58:00,-2.4,-16.0,29.74,North,0,0.0,0.0,51,0.00,,---,0.00,VWS V14.01,2013-01-08 09:58:00,
2013-01-08 05:04:00,-2.4,-16.0,29.74,North,0,0.0,0.0,51,0.00,,---,0.00,VWS V14.01,2013-01-08 10:04:00,
2013-01-08 05:09:00,-2.2,-15.9,29.74,North,0,0.0,0.0,51,0.00,,---,0.00,VWS V14.01,2013-01-08 10:09:00,
2013-01-08 05:14:00,-2.2,-15.9,29.74,North,0,0.0,0.0,51,0.00,,---,0.00,VWS V14.01,2013-01-08 10:14:00,
2013-01-08 05:19:00,-2.2,-15.9,29.74,North,0,0.0,0.0,51,0.00,,---,0.00,VWS V14.01,2013-01-08 10:19:00,
2013-01-08 05:24:00,-2.2,-15.9,29.74,North,0,0.0,0.0,51,0.00,,---,0.00,VWS V14.01,2013-01-08 10:24:00,
2013-01-08 05:29:00,-2.4,-16.0,29.74,North,0,0.0,0.0,51,0.00,,---,0.00,VWS V14.01,2013-01-08 10:29:00,
2013-01-08 05:35:00,-2.6,-16.2,29.74,North,0,0.0,0.0,51,0.00,,---,0.00,VWS V14.01,2013-01-08 10:35:00,
2013-01-08 05:40:00,-2.6,-16.2,29.76,North,0,0.0,0.0,51,0.00,,---,0.00,VWS V14.01,2013-01-08 10:40:00,
2013-01-08 05:45:00,-2.2,-15.9,29.76,North,0,0.0,0.0,51,0.00,,---,0.00,VWS V14.01,2013-01-08 10:45:00,
2013-01-08 05:50:00,-2.6,-16.2,29.76,North,0,0.0,0.0,51,0.00,,---,0.00,VWS V14.01,2013-01-08 10:50:00,
2013-01-08 05:55:00,-2.7,-16.4,29.74,North,0,0.0,0.0,51,0.00,,---,0.00,VWS V14.01,2013-01-08 10:55:00,
2013-01-08 06:00:00,-2.7,-16.4,29.74,North,0,0.0,0.0,51,0.00,,---,0.00,VWS V14.01,2013-01-08 11:00:00,
2013-01-08 06:06:00,-2.4,-16.0,29.74,North,0,0.0,0.0,51,0.00,,---,0.00,VWS V14.01,2013-01-08 11:06:00,
2013-01-08 06:11:00,-2.2,-15.9,29.74,North,0,0.0,0.0,51,0.00,,---,0.00,VWS V14.01,2013-01-08 11:11:00,
2013-01-08 06:16:00,-2.2,-15.9,29.74,North,0,0.0,0.0,51,0.00,,---,0.00,VWS V14.01,2013-01-08 11:16:00,
2013-01-08 06:21:00,-2.2,-15.9,29.74,North,0,0.0,0.0,51,0.00,,---,0.00,VWS V14.01,2013-01-08 11:21:00,
2013-01-08 06:26:00,-2.2,-15.9,29.76,North,0,0.0,0.0,51,0.00,,---,0.00,VWS V14.01,2013-01-08 11:26:00,
2013-01-08 06:31:00,-2.2,-15.9,29.76,North,0,0.0,0.0,51,0.00,,---,0.00,VWS V14.01,2013-01-08 11:31:00,
2013-01-08 06:36:00,-2.2,-15.9,29.76,North,0,0.0,0.0,51,0.00,,---,0.00,VWS V14.01,2013-01-08 11:36:00,
2013-01-08 06:41:00,-2.2,-15.9,29.76,North,0,0.0,0.0,51,0.00,,---,0.00,VWS V14.01,2013-01-08 11:41:00,
2013-01-08 06:46:00,-2.2,-15.9,29.76,North,0,0.0,0.0,51,0.00,,---,0.00,VWS V14.01,2013-01-08 11:46:00,
2013-01-08 06:51:00,-2.0,-15.7,29.76,North,0,0.0,0.0,51,0.00,,---,0.00,VWS V14.01,2013-01-08 11:51:00,
2013-01-08 06:56:00,-1.8,-15.5,29.74,North,0,0.0,0.0,51,0.00,,---,0.00,VWS V14.01,2013-01-08 11:56:00,
2013-01-08 07:01:00,-2.0,-15.7,29.74,North,0,0.0,0.0,51,0.00,,---,0.00,VWS V14.01,2013-01-08 12:01:00,
2013-01-08 07:06:00,-2.0,-15.7,29.74,North,0,0.0,0.0,51,0.00,,---,0.00,VWS V14.01,2013-01-08 12:06:00,
2013-01-08 07:11:00,-2.0,-15.7,29.76,North,0,0.0,0.0,51,0.00,,---,0.00,VWS V14.01,2013-01-08 12:11:00,
2013-01-08 07:16:00,-2.0,-15.7,29.76,North,0,0.0,0.0,51,0.00,,---,0.00,VWS V14.01,2013-01-08 12:16:00,
2013-01-08 07:21:00,-1.8,-15.5,29.76,North,0,0.0,0.0,51,0.00,,---,0.00,VWS V14.01,2013-01-08 12:21:00,
2013-01-08 07:26:00,-1.8,-15.5,29.76,North,0,0.0,0.0,51,0.00,,---,0.00,VWS V14.01,2013-01-08 12:26:00,
2013-01-08 07:31:00,-1.8,-15.5,29.76,North,0,0.0,0.0,51,0.00,,---,0.00,VWS V14.01,2013-01-08 12:31:00,
2013-01-08 07:36:00,-1.8,-15.5,29.76,North,0,0.0,0.0,51,0.00,,---,0.00,VWS V14.01,2013-01-08 12:36:00,
2013-01-08 07:42:00,-1.5,-15.2,29.76,North,0,0.0,0.0,51,0.00,,---,0.00,VWS V14.01,2013-01-08 12:42:00,
2013-01-08 07:47:00,-1.3,-15.0,29.76,North,0,0.0,0.0,51,0.00,,---,0.00,VWS V14.01,2013-01-08 12:47:00,
2013-01-08 07:53:00,-0.9,-14.7,29.76,North,0,0.0,0.0,51,0.00,,---,0.00,VWS V14.01,2013-01-08 12:53:00,
2013-01-08 07:58:00,-0.9,-14.7,29.76,North,0,0.0,0.0,51,0.00,,---,0.00,VWS V14.01,2013-01-08 12:58:00,
2013-01-08 08:03:00,-0.8,-14.5,29.76,North,0,0.0,0.0,51,0.00,,---,0.00,VWS V14.01,2013-01-08 13:03:00,
2013-01-08 08:08:00,-0.4,-14.2,29.76,North,0,0.0,0.0,51,0.00,,---,0.00,VWS V14.01,2013-01-08 13:08:00,
2013-01-08 08:14:00,0.0,-13.9,29.76,North,0,0.0,0.0,51,0.00,,---,0.00,VWS V14.01,2013-01-08 13:14:00,
2013-01-08 08:19:00,0.3,-13.5,29.76,North,0,0.0,0.0,51,0.00,,---,0.00,VWS V14.01,2013-01-08 13:19:00,
2013-01-08 08:25:00,0.5,-13.4,29.76,North,0,0.0,0.0,51,0.00,,---,0.00,VWS V14.01,2013-01-08 13:25:00,
2013-01-08 08:30:00,0.9,-13.0,29.76,North,0,0.0,0.0,51,0.00,,---,0.00,VWS V14.01,2013-01-08 13:30:00,
2013-01-08 08:35:00,1.2,-12.7,29.76,North,0,0.0,0.0,51,0.00,,---,0.00,VWS V14.01,2013-01-08 13:35:00,
2013-01-08 08:40:00,1.9,-12.0,29.76,North,0,0.0,0.0,51,0.00,,---,0.00,VWS V14.01,2013-01-08 13:40:00,
2013-01-08 08:46:00,2.5,-11.5,29.76,North,0,0.0,0.0,51,0.00,,---,0.00,VWS V14.01,2013-01-08 13:46:00,
2013-01-08 08:51:00,3.0,-11.0,29.76,North,0,0.0,0.0,51,0.00,,---,0.00,VWS V14.01,2013-01-08 13:51:00,
2013-01-08 08:56:00,3.7,-10.3,29.76,North,0,0.0,0.0,51,0.00,,---,0.00,VWS V14.01,2013-01-08 13:56:00,
2013-01-08 09:01:00,4.5,-9.7,29.76,North,0,0.0,0.0,51,0.00,,---,0.00,VWS V14.01,2013-01-08 14:01:00,
2013-01-08 09:06:00,5.5,-8.7,29.76,North,0,0.0,0.0,51,0.00,,---,0.00,VWS V14.01,2013-01-08 14:06:00,
2013-01-08 09:12:00,6.3,-8.0,29.76,North,0,0.0,0.0,51,0.00,,---,0.00,VWS V14.01,2013-01-08 14:12:00,
2013-01-08 09:17:00,7.5,-6.8,29.76,North,0,0.0,0.0,51,0.00,,---,0.00,VWS V14.01,2013-01-08 14:17:00,
2013-01-08 09:22:00,8.6,-5.8,29.76,North,0,0.0,0.0,51,0.00,,---,0.00,VWS V14.01,2013-01-08 14:22:00,
2013-01-08 09:27:00,9.7,-4.8,29.76,North,0,0.0,0.0,51,0.00,,---,0.00,VWS V14.01,2013-01-08 14:27:00,
2013-01-08 09:32:00,10.8,-3.8,29.76,North,0,0.0,0.0,51,0.00,,---,0.00,VWS V14.01,2013-01-08 14:32:00,
2013-01-08 09:37:00,11.1,-3.5,29.76,North,0,0.0,0.0,51,0.00,,---,0.00,VWS V14.01,2013-01-08 14:37:00,
2013-01-08 09:42:00,12.0,-2.6,29.76,North,0,0.0,0.0,51,0.00,,---,0.00,VWS V14.01,2013-01-08 14:42:00,
2013-01-08 09:47:00,12.7,-2.0,29.76,North,0,0.0,0.0,51,0.00,,---,0.00,VWS V14.01,2013-01-08 14:47:00,
2013-01-08 09:52:00,13.6,-1.1,29.76,North,0,0.0,0.0,51,0.00,,---,0.00,VWS V14.01,2013-01-08 14:52:00,
2013-01-08 09:57:00,14.4,5.4,29.76,North,0,0.0,0.0,67,0.00,,---,0.00,VWS V14.01,2013-01-08 14:57:00,
2013-01-08 10:03:00,15.3,6.3,29.76,North,0,0.0,0.0,67,0.00,,---,0.00,VWS V14.01,2013-01-08 15:03:00,
2013-01-08 10:08:00,15.8,6.5,29.76,North,0,0.0,0.0,66,0.00,,---,0.00,VWS V14.01,2013-01-08 15:08:00,
2013-01-08 10:13:00,16.2,6.8,29.76,North,0,0.0,0.0,66,0.00,,---,0.00,VWS V14.01,2013-01-08 15:13:00,
2013-01-08 10:18:00,16.7,7.0,29.76,North,0,0.0,0.0,65,0.00,,---,0.00,VWS V14.01,2013-01-08 15:18:00,
2013-01-08 10:23:00,16.9,6.8,29.76,North,0,0.0,0.0,64,0.00,,---,0.00,VWS V14.01,2013-01-08 15:23:00,
2013-01-08 10:28:00,17.6,7.8,29.76,North,0,0.0,0.0,65,0.00,,---,0.00,VWS V14.01,2013-01-08 15:28:00,
2013-01-08 10:33:00,18.1,8.4,29.76,North,0,0.0,0.0,65,0.00,,---,0.00,VWS V14.01,2013-01-08 15:33:00,
2013-01-08 10:38:00,18.5,8.4,29.76,North,0,0.0,0.0,64,0.00,,---,0.00,VWS V14.01,2013-01-08 15:38:00,
2013-01-08 10:43:00,19.0,8.5,29.76,North,0,0.0,0.0,63,0.00,,---,0.00,VWS V14.01,2013-01-08 15:43:00,
2013-01-08 10:48:00,19.2,8.7,29.76,North,0,0.0,0.0,63,0.00,,---,0.00,VWS V14.01,2013-01-08 15:48:00,
2013-01-08 10:53:00,19.8,8.9,29.76,North,0,0.0,0.0,62,0.00,,---,0.00,VWS V14.01,2013-01-08 15:53:00,
2013-01-08 10:58:00,20.1,9.2,29.76,North,0,0.0,0.0,62,0.00,,---,0.00,VWS V14.01,2013-01-08 15:58:00,
2013-01-08 11:03:00,20.5,9.2,29.76,North,0,0.0,0.0,61,0.00,,---,0.00,VWS V14.01,2013-01-08 16:03:00,
2013-01-08 11:08:00,21.2,10.2,29.74,North,0,0.0,0.0,62,0.00,,---,0.00,VWS V14.01,2013-01-08 16:08:00,
2013-01-08 11:13:00,21.7,10.4,29.74,North,0,0.0,0.0,61,0.00,,---,0.00,VWS V14.01,2013-01-08 16:13:00,
2013-01-08 11:19:00,22.1,10.4,29.74,North,0,0.0,0.0,60,0.00,,---,0.00,VWS V14.01,2013-01-08 16:19:00,
2013-01-08 11:25:00,22.6,10.5,29.74,North,0,0.0,0.0,59,0.00,,---,0.00,VWS V14.01,2013-01-08 16:25:00,
2013-01-08 11:30:00,22.8,10.6,29.74,North,0,0.0,0.0,59,0.00,,---,0.00,VWS V14.01,2013-01-08 16:30:00,
2013-01-08 11:35:00,23.2,10.6,29.74,North,0,0.0,0.0,58,0.00,,---,0.00,VWS V14.01,2013-01-08 16:35:00,
2013-01-08 11:41:00,23.5,10.9,29.74,North,0,0.0,0.0,58,0.00,,---,0.00,VWS V14.01,2013-01-08 16:41:00,
2013-01-08 11:46:00,23.7,11.1,29.74,North,0,0.0,0.0,58,0.00,,---,0.00,VWS V14.01,2013-01-08 16:46:00,
2013-01-08 11:51:00,24.1,11.1,29.74,North,0,0.0,0.0,57,0.00,,---,0.00,VWS V14.01,2013-01-08 16:51:00,
2013-01-08 11:56:00,24.4,11.4,29.74,North,0,0.0,0.0,57,0.00,,---,0.00,VWS V14.01,2013-01-08 16:56:00,
2013-01-08 12:01:00,24.8,11.7,29.74,North,0,0.0,0.0,57,0.00,,---,0.00,VWS V14.01,2013-01-08 17:01:00,
2013-01-08 12:06:00,25.2,11.7,29.74,North,0,0.0,0.0,56,0.00,,---,0.00,VWS V14.01,2013-01-08 17:06:00,
2013-01-08 12:11:00,25.3,11.9,29.74,North,0,0.0,0.0,56,0.00,,---,0.00,VWS V14.01,2013-01-08 17:11:00,
2013-01-08 12:16:00,25.9,12.4,29.74,North,0,0.0,0.0,56,0.00,,---,0.00,VWS V14.01,2013-01-08 17:16:00,
2013-01-08 12:21:00,26.4,12.5,29.74,North,0,0.0,0.0,55,0.00,,---,0.00,VWS V14.01,2013-01-08 17:21:00,
2013-01-08 12:26:00,27.0,13.0,29.74,North,0,0.0,0.0,55,0.00,,---,0.00,VWS V14.01,2013-01-08 17:26:00,
2013-01-08 12:31:00,27.1,12.7,29.74,North,0,0.0,0.0,54,0.00,,---,0.00,VWS V14.01,2013-01-08 17:31:00,
2013-01-08 12:36:00,27.3,12.9,29.74,North,0,0.0,0.0,54,0.00,,---,0.00,VWS V14.01,2013-01-08 17:36:00,
2013-01-08 12:42:00,27.5,12.6,29.74,North,0,0.0,0.0,53,0.00,,---,0.00,VWS V14.01,2013-01-08 17:42:00,
2013-01-08 12:47:00,27.7,12.8,29.74,North,0,0.0,0.0,53,0.00,,---,0.00,VWS V14.01,2013-01-08 17:47:00,
2013-01-08 12:52:00,27.5,12.6,29.74,North,0,0.0,0.0,53,0.00,,---,0.00,VWS V14.01,2013-01-08 17:52:00,
2013-01-08 12:57:00,27.5,12.2,29.74,North,0,0.0,0.0,52,0.00,,---,0.00,VWS V14.01,2013-01-08 17:57:00,
2013-01-08 13:02:00,27.7,12.8,29.74,North,0,0.0,0.0,53,0.00,,---,0.00,VWS V14.01,2013-01-08 18:02:00,
2013-01-08 13:07:00,27.7,12.8,29.74,North,0,0.0,0.0,53,0.00,,---,0.00,VWS V14.01,2013-01-08 18:07:00,
2013-01-08 13:12:00,27.9,12.5,29.74,North,0,0.0,0.0,52,0.00,,---,0.00,VWS V14.01,2013-01-08 18:12:00,
2013-01-08 13:17:00,28.0,12.7,29.74,North,0,0.0,0.0,52,0.00,,---,0.00,VWS V14.01,2013-01-08 18:17:00,
2013-01-08 13:22:00,28.6,13.2,29.74,North,0,0.0,0.0,52,0.00,,---,0.00,VWS V14.01,2013-01-08 18:22:00,
2013-01-08 13:27:00,28.9,13.5,29.74,North,0,0.0,0.0,52,0.00,,---,0.00,VWS V14.01,2013-01-08 18:27:00,
2013-01-08 13:32:00,29.1,13.3,29.74,North,0,0.0,0.0,51,0.00,,---,0.00,VWS V14.01,2013-01-08 18:32:00,
2013-01-08 13:37:00,29.3,13.4,29.74,North,0,0.0,0.0,51,0.00,,---,0.00,VWS V14.01,2013-01-08 18:37:00,
2013-01-08 13:42:00,29.7,13.8,29.74,North,0,0.0,0.0,51,0.00,,---,0.00,VWS V14.01,2013-01-08 18:42:00,
2013-01-08 13:47:00,29.8,13.9,29.74,North,0,0.0,0.0,51,0.00,,---,0.00,VWS V14.01,2013-01-08 18:47:00,
2013-01-08 13:53:00,29.8,13.5,29.74,North,0,0.0,0.0,50,0.00,,---,0.00,VWS V14.01,2013-01-08 18:53:00,
2013-01-08 13:58:00,29.8,13.9,29.74,North,0,0.0,0.0,51,0.00,,---,0.00,VWS V14.01,2013-01-08 18:58:00,
2013-01-08 14:04:00,30.0,13.6,29.74,North,0,0.0,0.0,50,0.00,,---,0.00,VWS V14.01,2013-01-08 19:04:00,
2013-01-08 14:10:00,30.2,13.8,29.74,North,0,0.0,0.0,50,0.00,,---,0.00,VWS V14.01,2013-01-08 19:10:00,
2013-01-08 14:15:00,30.6,14.1,29.74,North,0,0.0,0.0,50,0.00,,---,0.00,VWS V14.01,2013-01-08 19:15:00,
2013-01-08 14:20:00,30.6,13.7,29.74,North,0,0.0,0.0,49,0.00,,---,0.00,VWS V14.01,2013-01-08 19:20:00,
2013-01-08 14:25:00,30.7,13.9,29.74,North,0,0.0,0.0,49,0.00,,---,0.00,VWS V14.01,2013-01-08 19:25:00,
2013-01-08 14:31:00,31.1,14.2,29.74,North,0,0.0,0.0,49,0.00,,---,0.00,VWS V14.01,2013-01-08 19:31:00,
2013-01-08 14:36:00,31.3,14.4,29.74,North,0,0.0,0.0,49,0.00,,---,0.00,VWS V14.01,2013-01-08 19:36:00,
2013-01-08 14:41:00,31.6,14.7,29.74,North,0,0.0,0.0,49,0.00,,---,0.00,VWS V14.01,2013-01-08 19:41:00,
2013-01-08 14:46:00,31.8,14.4,29.74,North,0,0.0,0.0,48,0.00,,---,0.00,VWS V14.01,2013-01-08 19:46:00,
2013-01-08 14:51:00,31.8,14.4,29.74,North,0,0.0,0.0,48,0.00,,---,0.00,VWS V14.01,2013-01-08 19:51:00,
2013-01-08 14:57:00,31.8,14.4,29.74,North,0,0.0,0.0,48,0.00,,---,0.00,VWS V14.01,2013-01-08 19:57:00,
2013-01-08 15:02:00,32.2,14.7,29.74,North,0,0.0,0.0,48,0.00,,---,0.00,VWS V14.01,2013-01-08 20:02:00,
2013-01-08 15:07:00,32.2,14.7,29.74,North,0,0.0,0.0,48,0.00,,---,0.00,VWS V14.01,2013-01-08 20:07:00,
2013-01-08 15:12:00,32.0,14.1,29.76,North,0,0.0,0.0,47,0.00,,---,0.00,VWS V14.01,2013-01-08 20:12:00,
2013-01-08 15:17:00,32.0,14.6,29.76,North,0,0.0,0.0,48,0.00,,---,0.00,VWS V14.01,2013-01-08 20:17:00,
2013-01-08 15:22:00,31.5,14.1,29.76,North,0,0.0,0.0,48,0.00,,---,0.00,VWS V14.01,2013-01-08 20:22:00,
2013-01-08 15:28:00,32.0,14.6,29.76,North,0,0.0,0.0,48,0.00,,---,0.00,VWS V14.01,2013-01-08 20:28:00,
2013-01-08 15:33:00,31.6,13.7,29.76,North,0,0.0,0.0,47,0.00,,---,0.00,VWS V14.01,2013-01-08 20:33:00,
2013-01-08 15:39:00,30.9,13.1,29.76,North,0,0.0,0.0,47,0.00,,---,0.00,VWS V14.01,2013-01-08 20:39:00,
2013-01-08 15:44:00,30.4,12.6,29.76,North,0,0.0,0.0,47,0.00,,---,0.00,VWS V14.01,2013-01-08 20:44:00,
2013-01-08 15:49:00,30.0,12.7,29.76,North,0,0.0,0.0,48,0.00,,---,0.00,VWS V14.01,2013-01-08 20:49:00,
2013-01-08 15:54:00,29.5,12.2,29.76,North,0,0.0,0.0,48,0.00,,---,0.00,VWS V14.01,2013-01-08 20:54:00,
2013-01-08 16:00:00,29.1,11.9,29.76,North,0,0.0,0.0,48,0.00,,---,0.00,VWS V14.01,2013-01-08 21:00:00,
2013-01-08 16:05:00,28.2,11.5,29.76,North,0,0.0,0.0,49,0.00,,---,0.00,VWS V14.01,2013-01-08 21:05:00,
2013-01-08 16:10:00,27.9,11.2,29.76,North,0,0.0,0.0,49,0.00,,---,0.00,VWS V14.01,2013-01-08 21:10:00,
2013-01-08 16:16:00,27.3,10.7,29.76,North,0,0.0,0.0,49,0.00,,---,0.00,VWS V14.01,2013-01-08 21:16:00,
2013-01-08 16:21:00,26.8,10.6,29.76,North,0,0.0,0.0,50,0.00,,---,0.00,VWS V14.01,2013-01-08 21:21:00,
2013-01-08 16:26:00,26.2,10.1,29.76,North,0,0.0,0.0,50,0.00,,---,0.00,VWS V14.01,2013-01-08 21:26:00,
2013-01-08 16:32:00,25.9,10.3,29.76,North,0,0.0,0.0,51,0.00,,---,0.00,VWS V14.01,2013-01-08 21:32:00,
2013-01-08 16:37:00,25.3,9.8,29.76,North,0,0.0,0.0,51,0.00,,---,0.00,VWS V14.01,2013-01-08 21:37:00,
2013-01-08 16:43:00,25.0,9.9,29.76,North,0,0.0,0.0,52,0.00,,---,0.00,VWS V14.01,2013-01-08 21:43:00,
2013-01-08 16:48:00,24.4,9.4,29.76,North,0,0.0,0.0,52,0.00,,---,0.00,VWS V14.01,2013-01-08 21:48:00,
2013-01-08 16:53:00,24.4,9.8,29.79,North,0,0.0,0.0,53,0.00,,---,0.00,VWS V14.01,2013-01-08 21:53:00,
2013-01-08 16:58:00,24.1,9.4,29.79,North,0,0.0,0.0,53,0.00,,---,0.00,VWS V14.01,2013-01-08 21:58:00,
2013-01-08 17:03:00,23.9,9.3,29.79,North,0,0.0,0.0,53,0.00,,---,0.00,VWS V14.01,2013-01-08 22:03:00,
2013-01-08 17:08:00,23.5,8.9,29.79,North,0,0.0,0.0,53,0.00,,---,0.00,VWS V14.01,2013-01-08 22:08:00,
2013-01-08 17:14:00,23.4,9.2,29.79,North,0,0.0,0.0,54,0.00,,---,0.00,VWS V14.01,2013-01-08 22:14:00,
2013-01-08 17:19:00,22.8,8.7,29.79,North,0,0.0,0.0,54,0.00,,---,0.00,VWS V14.01,2013-01-08 22:19:00,
2013-01-08 17:24:00,22.6,8.9,29.79,North,0,0.0,0.0,55,0.00,,---,0.00,VWS V14.01,2013-01-08 22:24:00,
2013-01-08 17:29:00,22.3,8.6,29.79,North,0,0.0,0.0,55,0.00,,---,0.00,VWS V14.01,2013-01-08 22:29:00,
2013-01-08 17:34:00,21.9,8.2,29.79,North,0,0.0,0.0,55,0.00,,---,0.00,VWS V14.01,2013-01-08 22:34:00,
2013-01-08 17:39:00,21.7,8.5,29.79,North,0,0.0,0.0,56,0.00,,---,0.00,VWS V14.01,2013-01-08 22:39:00,
2013-01-08 17:44:00,21.7,8.5,29.79,North,0,0.0,0.0,56,0.00,,---,0.00,VWS V14.01,2013-01-08 22:44:00,
2013-01-08 17:49:00,21.7,8.5,29.79,North,0,0.0,0.0,56,0.00,,---,0.00,VWS V14.01,2013-01-08 22:49:00,
2013-01-08 17:54:00,21.6,8.3,29.82,North,0,0.0,0.0,56,0.00,,---,0.00,VWS V14.01,2013-01-08 22:54:00,
2013-01-08 17:59:00,21.4,8.1,29.82,North,0,0.0,0.0,56,0.00,,---,0.00,VWS V14.01,2013-01-08 22:59:00,
2013-01-08 18:04:00,21.0,8.6,29.82,North,0,0.0,0.0,58,0.00,,---,0.00,VWS V14.01,2013-01-08 23:04:00,
2013-01-08 18:09:00,21.0,8.6,29.82,North,0,0.0,0.0,58,0.00,,---,0.00,VWS V14.01,2013-01-08 23:09:00,
2013-01-08 18:14:00,20.7,8.2,29.82,North,0,0.0,0.0,58,0.00,,---,0.00,VWS V14.01,2013-01-08 23:14:00,
2013-01-08 18:19:00,20.3,7.9,29.82,North,0,0.0,0.0,58,0.00,,---,0.00,VWS V14.01,2013-01-08 23:19:00,
2013-01-08 18:24:00,19.9,7.9,29.82,North,0,0.0,0.0,59,0.00,,---,0.00,VWS V14.01,2013-01-08 23:24:00,
2013-01-08 18:29:00,19.4,7.4,29.82,North,0,0.0,0.0,59,0.00,,---,0.00,VWS V14.01,2013-01-08 23:29:00,
2013-01-08 18:34:00,19.2,7.6,29.82,North,0,0.0,0.0,60,0.00,,---,0.00,VWS V14.01,2013-01-08 23:34:00,
2013-01-08 18:41:00,19.2,7.6,29.82,North,0,0.0,0.0,60,0.00,,---,0.00,VWS V14.01,2013-01-08 23:41:00,
2013-01-08 18:46:00,19.4,8.2,29.82,North,0,0.0,0.0,61,0.00,,---,0.00,VWS V14.01,2013-01-08 23:46:00,
2013-01-08 18:51:00,19.0,7.8,29.82,North,0,0.0,0.0,61,0.00,,---,0.00,VWS V14.01,2013-01-08 23:51:00,
2013-01-08 18:56:00,18.9,7.7,29.82,North,0,0.0,0.0,61,0.00,,---,0.00,VWS V14.01,2013-01-08 23:56:00,
2013-01-08 19:01:00,18.9,7.7,29.82,North,0,0.0,0.0,61,0.00,,---,0.00,VWS V14.01,2013-01-09 00:01:00,
2013-01-08 19:06:00,18.9,7.7,29.82,North,0,0.0,0.0,61,0.00,,---,0.00,VWS V14.01,2013-01-09 00:06:00,
2013-01-08 19:11:00,18.1,7.3,29.82,North,0,0.0,0.0,62,0.00,,---,0.00,VWS V14.01,2013-01-09 00:11:00,
2013-01-08 19:16:00,18.1,7.3,29.82,North,0,0.0,0.0,62,0.00,,---,0.00,VWS V14.01,2013-01-09 00:16:00,
2013-01-08 19:21:00,17.8,7.0,29.82,North,0,0.0,0.0,62,0.00,,---,0.00,VWS V14.01,2013-01-09 00:21:00,
2013-01-08 19:27:00,17.4,7.0,29.85,North,0,0.0,0.0,63,0.00,,---,0.00,VWS V14.01,2013-01-09 00:27:00,
2013-01-08 19:32:00,17.1,6.7,29.85,North,0,0.0,0.0,63,0.00,,---,0.00,VWS V14.01,2013-01-09 00:32:00,
2013-01-08 19:38:00,16.7,6.7,29.85,North,0,0.0,0.0,64,0.00,,---,0.00,VWS V14.01,2013-01-09 00:38:00,
2013-01-08 19:43:00,16.3,6.3,29.85,North,0,0.0,0.0,64,0.00,,---,0.00,VWS V14.01,2013-01-09 00:43:00,
2013-01-08 19:48:00,16.3,6.3,29.85,North,0,0.0,0.0,64,0.00,,---,0.00,VWS V14.01,2013-01-09 00:48:00,
2013-01-08 19:53:00,16.0,6.0,29.82,North,0,0.0,0.0,64,0.00,,---,0.00,VWS V14.01,2013-01-09 00:53:00,
2013-01-08 19:58:00,15.8,6.1,29.82,North,0,0.0,0.0,65,0.00,,---,0.00,VWS V14.01,2013-01-09 00:58:00,
2013-01-08 20:03:00,15.8,6.1,29.82,North,0,0.0,0.0,65,0.00,,---,0.00,VWS V14.01,2013-01-09 01:03:00,
2013-01-08 20:08:00,15.8,6.1,29.85,North,0,0.0,0.0,65,0.00,,---,0.00,VWS V14.01,2013-01-09 01:08:00,
2013-01-08 20:14:00,15.8,6.5,29.85,North,0,0.0,0.0,66,0.00,,---,0.00,VWS V14.01,2013-01-09 01:14:00,
2013-01-08 20:19:00,15.8,6.8,29.85,North,0,0.0,0.0,67,0.00,,---,0.00,VWS V14.01,2013-01-09 01:19:00,
2013-01-08 20:24:00,15.6,6.6,29.85,North,0,0.0,0.0,67,0.00,,---,0.00,VWS V14.01,2013-01-09 01:24:00,
2013-01-08 20:29:00,15.4,6.1,29.85,North,0,0.0,0.0,66,0.00,,---,0.00,VWS V14.01,2013-01-09 01:29:00,
2013-01-08 20:34:00,15.4,6.5,29.85,North,0,0.0,0.0,67,0.00,,---,0.00,VWS V14.01,2013-01-09 01:34:00,
2013-01-08 20:39:00,15.1,6.1,29.85,North,0,0.0,0.0,67,0.00,,---,0.00,VWS V14.01,2013-01-09 01:39:00,
2013-01-08 20:44:00,15.3,6.3,29.85,North,0,0.0,0.0,67,0.00,,---,0.00,VWS V14.01,2013-01-09 01:44:00,
2013-01-08 20:49:00,15.4,6.8,29.85,North,0,0.0,0.0,68,0.00,,---,0.00,VWS V14.01,2013-01-09 01:49:00,
2013-01-08 20:54:00,15.4,6.8,29.85,North,0,0.0,0.0,68,0.00,,---,0.00,VWS V14.01,2013-01-09 01:54:00,
2013-01-08 20:59:00,15.3,6.6,29.85,North,0,0.0,0.0,68,0.00,,---,0.00,VWS V14.01,2013-01-09 01:59:00,
2013-01-08 21:04:00,14.5,5.6,29.85,North,0,0.0,0.0,67,0.00,,---,0.00,VWS V14.01,2013-01-09 02:04:00,
2013-01-08 21:09:00,14.4,5.8,29.85,North,0,0.0,0.0,68,0.00,,---,0.00,VWS V14.01,2013-01-09 02:09:00,
2013-01-08 21:14:00,14.5,6.2,29.85,North,0,0.0,0.0,69,0.00,,---,0.00,VWS V14.01,2013-01-09 02:14:00,
2013-01-08 21:19:00,14.7,6.7,29.85,North,0,0.0,0.0,70,0.00,,---,0.00,VWS V14.01,2013-01-09 02:19:00,
2013-01-08 21:24:00,14.4,6.1,29.85,North,0,0.0,0.0,69,0.00,,---,0.00,VWS V14.01,2013-01-09 02:24:00,
2013-01-08 21:30:00,14.0,6.0,29.85,North,0,0.0,0.0,70,0.00,,---,0.00,VWS V14.01,2013-01-09 02:30:00,
2013-01-08 21:35:00,13.8,5.9,29.85,North,0,0.0,0.0,70,0.00,,---,0.00,VWS V14.01,2013-01-09 02:35:00,
2013-01-08 21:40:00,13.6,5.7,29.85,North,0,0.0,0.0,70,0.00,,---,0.00,VWS V14.01,2013-01-09 02:40:00,
2013-01-08 21:46:00,13.3,5.3,29.85,North,0,0.0,0.0,70,0.00,,---,0.00,VWS V14.01,2013-01-09 02:46:00,
2013-01-08 21:51:00,12.9,5.0,29.85,North,0,0.0,0.0,70,0.00,,---,0.00,VWS V14.01,2013-01-09 02:51:00,
2013-01-08 21:56:00,12.7,4.8,29.88,North,0,0.0,0.0,70,0.00,,---,0.00,VWS V14.01,2013-01-09 02:56:00,
2013-01-08 22:02:00,12.6,4.7,29.88,North,0,0.0,0.0,70,0.00,,---,0.00,VWS V14.01,2013-01-09 03:02:00,
2013-01-08 22:07:00,12.4,4.5,29.88,North,0,0.0,0.0,70,0.00,,---,0.00,VWS V14.01,2013-01-09 03:07:00,
2013-01-08 22:12:00,11.8,4.0,29.88,North,0,0.0,0.0,70,0.00,,---,0.00,VWS V14.01,2013-01-09 03:12:00,
2013-01-08 22:18:00,11.8,4.0,29.88,North,0,0.0,0.0,70,0.00,,---,0.00,VWS V14.01,2013-01-09 03:18:00,
2013-01-08 22:23:00,11.8,4.0,29.88,North,0,0.0,0.0,70,0.00,,---,0.00,VWS V14.01,2013-01-09 03:23:00,
2013-01-08 22:28:00,11.5,3.6,29.88,North,0,0.0,0.0,70,0.00,,---,0.00,VWS V14.01,2013-01-09 03:28:00,
2013-01-08 22:33:00,11.7,3.8,29.88,North,0,0.0,0.0,70,0.00,,---,0.00,VWS V14.01,2013-01-09 03:33:00,
2013-01-08 22:38:00,11.7,3.8,29.88,North,0,0.0,0.0,70,0.00,,---,0.00,VWS V14.01,2013-01-09 03:38:00,
2013-01-08 22:43:00,11.3,3.4,29.88,North,0,0.0,0.0,70,0.00,,---,0.00,VWS V14.01,2013-01-09 03:43:00,
2013-01-08 22:48:00,11.3,3.4,29.88,North,0,0.0,0.0,70,0.00,,---,0.00,VWS V14.01,2013-01-09 03:48:00,
2013-01-08 22:54:00,10.9,3.1,29.88,North,0,0.0,0.0,70,0.00,,---,0.00,VWS V14.01,2013-01-09 03:54:00,
2013-01-08 22:59:00,10.9,3.1,29.88,North,0,0.0,0.0,70,0.00,,---,0.00,VWS V14.01,2013-01-09 03:59:00,
2013-01-08 23:04:00,10.8,2.9,29.88,North,0,0.0,0.0,70,0.00,,---,0.00,VWS V14.01,2013-01-09 04:04:00,
2013-01-08 23:10:00,10.4,2.6,29.88,North,0,0.0,0.0,70,0.00,,---,0.00,VWS V14.01,2013-01-09 04:10:00,
2013-01-08 23:15:00,10.2,2.4,29.88,North,0,0.0,0.0,70,0.00,,---,0.00,VWS V14.01,2013-01-09 04:15:00,
2013-01-08 23:20:00,10.4,2.6,29.88,North,0,0.0,0.0,70,0.00,,---,0.00,VWS V14.01,2013-01-09 04:20:00,
2013-01-08 23:25:00,10.2,2.4,29.88,North,0,0.0,0.0,70,0.00,,---,0.00,VWS V14.01,2013-01-09 04:25:00,
2013-01-08 23:31:00,9.9,2.0,29.88,North,0,0.0,0.0,70,0.00,,---,0.00,VWS V14.01,2013-01-09 04:31:00,
2013-01-08 23:36:00,10.0,2.2,29.88,North,0,0.0,0.0,70,0.00,,---,0.00,VWS V14.01,2013-01-09 04:36:00,
2013-01-08 23:41:00,10.0,2.2,29.88,North,0,0.0,0.0,70,0.00,,---,0.00,VWS V14.01,2013-01-09 04:41:00,
2013-01-08 23:46:00,9.9,2.0,29.88,North,0,0.0,0.0,70,0.00,,---,0.00,VWS V14.01,2013-01-09 04:46:00,
2013-01-08 23:51:00,9.7,1.9,29.88,North,0,0.0,0.0,70,0.00,,---,0.00,VWS V14.01,2013-01-09 04:51:00,
2013-01-08 23:56:00,9.5,1.7,29.88,North,0,0.0,0.0,70,0.00,,---,0.00,VWS V14.01,2013-01-09 04:56:00,